sensor_id;sensor_type;location;lat;lon;timestamp;P1;durP1;ratioP1;P2;durP2;ratioP2
73869;SDS011;64924;42.140;24.762;2023-08-17T00:02:12;7.75;;;3.72;;
73869;SDS011;64924;42.140;24.762;2023-08-17T00:04:38;9.25;;;4.25;;
73869;SDS011;64924;42.140;24.762;2023-08-17T00:07:04;8.52;;;3.75;;
73869;SDS011;64924;42.140;24.762;2023-08-17T00:09:30;6.47;;;4.15;;
73869;SDS011;64924;42.140;24.762;2023-08-17T00:11:55;10.43;;;3.63;;
73869;SDS011;64924;42.140;24.762;2023-08-17T00:14:21;7.40;;;3.90;;
73869;SDS011;64924;42.140;24.762;2023-08-17T00:16:49;8.38;;;3.70;;
73869;SDS011;64924;42.140;24.762;2023-08-17T00:19:15;7.22;;;3.50;;
73869;SDS011;64924;42.140;24.762;2023-08-17T00:21:41;9.13;;;4.07;;
73869;SDS011;64924;42.140;24.762;2023-08-17T00:24:06;8.73;;;3.88;;
73869;SDS011;64924;42.140;24.762;2023-08-17T00:26:32;9.77;;;3.47;;
73869;SDS011;64924;42.140;24.762;2023-08-17T00:28:58;13.95;;;4.63;;
73869;SDS011;64924;42.140;24.762;2023-08-17T00:31:23;9.05;;;4.25;;
73869;SDS011;64924;42.140;24.762;2023-08-17T00:33:49;12.70;;;4.65;;
73869;SDS011;64924;42.140;24.762;2023-08-17T00:36:18;9.63;;;4.47;;
73869;SDS011;64924;42.140;24.762;2023-08-17T00:38:44;9.85;;;4.22;;
73869;SDS011;64924;42.140;24.762;2023-08-17T00:41:09;10.18;;;4.25;;
73869;SDS011;64924;42.140;24.762;2023-08-17T00:43:35;9.48;;;4.85;;
73869;SDS011;64924;42.140;24.762;2023-08-17T00:46:00;15.40;;;4.82;;
73869;SDS011;64924;42.140;24.762;2023-08-17T00:48:27;13.68;;;5.53;;
73869;SDS011;64924;42.140;24.762;2023-08-17T00:50:54;11.30;;;5.00;;
73869;SDS011;64924;42.140;24.762;2023-08-17T00:53:24;9.38;;;4.45;;
73869;SDS011;64924;42.140;24.762;2023-08-17T00:55:54;12.73;;;4.63;;
73869;SDS011;64924;42.140;24.762;2023-08-17T00:58:21;10.48;;;5.55;;
73869;SDS011;64924;42.140;24.762;2023-08-17T01:00:47;11.55;;;5.45;;
73869;SDS011;64924;42.140;24.762;2023-08-17T01:03:12;10.07;;;5.22;;
73869;SDS011;64924;42.140;24.762;2023-08-17T01:05:39;8.60;;;4.30;;
73869;SDS011;64924;42.140;24.762;2023-08-17T01:08:05;9.15;;;4.53;;
73869;SDS011;64924;42.140;24.762;2023-08-17T01:10:31;14.02;;;4.30;;
73869;SDS011;64924;42.140;24.762;2023-08-17T01:13:13;9.85;;;4.90;;
73869;SDS011;64924;42.140;24.762;2023-08-17T01:15:46;4.82;;;3.88;;
73869;SDS011;64924;42.140;24.762;2023-08-17T01:18:23;12.15;;;4.60;;
73869;SDS011;64924;42.140;24.762;2023-08-17T01:20:53;12.20;;;4.60;;
73869;SDS011;64924;42.140;24.762;2023-08-17T01:23:20;10.88;;;5.18;;
73869;SDS011;64924;42.140;24.762;2023-08-17T01:25:45;8.35;;;4.57;;
73869;SDS011;64924;42.140;24.762;2023-08-17T01:28:11;10.25;;;4.28;;
73869;SDS011;64924;42.140;24.762;2023-08-17T01:33:29;8.18;;;5.20;;
73869;SDS011;64924;42.140;24.762;2023-08-17T01:38:47;12.80;;;5.15;;
73869;SDS011;64924;42.140;24.762;2023-08-17T01:41:16;10.65;;;5.53;;
73869;SDS011;64924;42.140;24.762;2023-08-17T01:43:42;10.20;;;4.97;;
73869;SDS011;64924;42.140;24.762;2023-08-17T01:46:16;12.13;;;5.07;;
73869;SDS011;64924;42.140;24.762;2023-08-17T01:48:42;12.85;;;5.05;;
73869;SDS011;64924;42.140;24.762;2023-08-17T01:51:10;13.85;;;5.38;;
73869;SDS011;64924;42.140;24.762;2023-08-17T01:53:36;14.25;;;5.03;;
73869;SDS011;64924;42.140;24.762;2023-08-17T01:56:02;9.18;;;4.65;;
73869;SDS011;64924;42.140;24.762;2023-08-17T01:58:28;14.95;;;5.63;;
73869;SDS011;64924;42.140;24.762;2023-08-17T02:00:53;11.57;;;5.38;;
73869;SDS011;64924;42.140;24.762;2023-08-17T02:03:18;7.13;;;4.70;;
73869;SDS011;64924;42.140;24.762;2023-08-17T02:05:44;9.93;;;5.28;;
73869;SDS011;64924;42.140;24.762;2023-08-17T02:08:10;8.80;;;5.00;;
73869;SDS011;64924;42.140;24.762;2023-08-17T02:10:36;12.95;;;4.47;;
73869;SDS011;64924;42.140;24.762;2023-08-17T02:13:01;9.70;;;5.30;;
73869;SDS011;64924;42.140;24.762;2023-08-17T02:15:29;11.88;;;4.75;;
73869;SDS011;64924;42.140;24.762;2023-08-17T02:17:56;15.38;;;5.13;;
73869;SDS011;64924;42.140;24.762;2023-08-17T02:20:25;11.48;;;5.95;;
73869;SDS011;64924;42.140;24.762;2023-08-17T02:22:50;12.43;;;4.93;;
73869;SDS011;64924;42.140;24.762;2023-08-17T02:25:16;9.20;;;4.97;;
73869;SDS011;64924;42.140;24.762;2023-08-17T02:27:42;9.32;;;4.78;;
73869;SDS011;64924;42.140;24.762;2023-08-17T02:30:08;12.82;;;5.68;;
73869;SDS011;64924;42.140;24.762;2023-08-17T02:32:34;10.02;;;5.18;;
73869;SDS011;64924;42.140;24.762;2023-08-17T02:35:00;15.55;;;5.10;;
73869;SDS011;64924;42.140;24.762;2023-08-17T02:37:26;8.30;;;5.55;;
73869;SDS011;64924;42.140;24.762;2023-08-17T02:39:51;14.60;;;5.15;;
73869;SDS011;64924;42.140;24.762;2023-08-17T02:42:17;12.55;;;4.78;;
73869;SDS011;64924;42.140;24.762;2023-08-17T02:44:42;9.98;;;5.65;;
73869;SDS011;64924;42.140;24.762;2023-08-17T02:47:08;11.23;;;5.70;;
73869;SDS011;64924;42.140;24.762;2023-08-17T02:49:33;15.05;;;5.53;;
73869;SDS011;64924;42.140;24.762;2023-08-17T02:51:59;8.30;;;4.63;;
73869;SDS011;64924;42.140;24.762;2023-08-17T02:54:25;17.92;;;5.10;;
73869;SDS011;64924;42.140;24.762;2023-08-17T02:56:51;12.85;;;6.55;;
73869;SDS011;64924;42.140;24.762;2023-08-17T02:59:17;8.95;;;5.80;;
73869;SDS011;64924;42.140;24.762;2023-08-17T03:01:43;13.63;;;5.05;;
73869;SDS011;64924;42.140;24.762;2023-08-17T03:04:09;9.07;;;4.82;;
73869;SDS011;64924;42.140;24.762;2023-08-17T03:06:35;10.30;;;5.57;;
73869;SDS011;64924;42.140;24.762;2023-08-17T03:09:00;8.95;;;4.90;;
73869;SDS011;64924;42.140;24.762;2023-08-17T03:11:25;8.52;;;5.00;;
73869;SDS011;64924;42.140;24.762;2023-08-17T03:13:51;10.80;;;5.13;;
73869;SDS011;64924;42.140;24.762;2023-08-17T03:16:17;13.50;;;4.78;;
73869;SDS011;64924;42.140;24.762;2023-08-17T03:18:43;11.25;;;4.80;;
73869;SDS011;64924;42.140;24.762;2023-08-17T03:21:08;15.85;;;4.90;;
73869;SDS011;64924;42.140;24.762;2023-08-17T03:23:33;10.15;;;5.05;;
73869;SDS011;64924;42.140;24.762;2023-08-17T03:25:59;12.48;;;4.97;;
73869;SDS011;64924;42.140;24.762;2023-08-17T03:28:25;9.48;;;5.00;;
73869;SDS011;64924;42.140;24.762;2023-08-17T03:30:54;12.25;;;5.15;;
73869;SDS011;64924;42.140;24.762;2023-08-17T03:33:20;12.20;;;4.95;;
73869;SDS011;64924;42.140;24.762;2023-08-17T03:35:46;10.32;;;5.05;;
73869;SDS011;64924;42.140;24.762;2023-08-17T03:38:11;9.70;;;5.28;;
73869;SDS011;64924;42.140;24.762;2023-08-17T03:40:37;12.25;;;5.68;;
73869;SDS011;64924;42.140;24.762;2023-08-17T03:43:03;8.20;;;5.07;;
73869;SDS011;64924;42.140;24.762;2023-08-17T03:45:29;9.50;;;5.03;;
73869;SDS011;64924;42.140;24.762;2023-08-17T03:47:55;11.98;;;5.72;;
73869;SDS011;64924;42.140;24.762;2023-08-17T03:50:21;14.00;;;5.70;;
73869;SDS011;64924;42.140;24.762;2023-08-17T03:52:46;11.38;;;5.05;;
73869;SDS011;64924;42.140;24.762;2023-08-17T03:55:11;10.73;;;5.03;;
73869;SDS011;64924;42.140;24.762;2023-08-17T03:57:37;9.73;;;5.28;;
73869;SDS011;64924;42.140;24.762;2023-08-17T04:00:04;13.70;;;5.85;;
73869;SDS011;64924;42.140;24.762;2023-08-17T04:02:32;21.45;;;5.93;;
73869;SDS011;64924;42.140;24.762;2023-08-17T04:04:57;11.63;;;4.90;;
73869;SDS011;64924;42.140;24.762;2023-08-17T04:07:23;14.32;;;5.30;;
73869;SDS011;64924;42.140;24.762;2023-08-17T04:09:48;11.82;;;4.63;;
73869;SDS011;64924;42.140;24.762;2023-08-17T04:12:14;11.85;;;5.07;;
73869;SDS011;64924;42.140;24.762;2023-08-17T04:14:40;16.83;;;6.13;;
73869;SDS011;64924;42.140;24.762;2023-08-17T04:17:05;9.95;;;4.63;;
73869;SDS011;64924;42.140;24.762;2023-08-17T04:19:31;9.77;;;4.32;;
73869;SDS011;64924;42.140;24.762;2023-08-17T04:21:56;11.55;;;3.78;;
73869;SDS011;64924;42.140;24.762;2023-08-17T04:24:22;8.15;;;4.03;;
73869;SDS011;64924;42.140;24.762;2023-08-17T04:26:48;6.38;;;3.90;;
73869;SDS011;64924;42.140;24.762;2023-08-17T04:29:14;9.07;;;3.80;;
73869;SDS011;64924;42.140;24.762;2023-08-17T04:31:39;6.15;;;3.78;;
73869;SDS011;64924;42.140;24.762;2023-08-17T04:34:05;9.20;;;3.83;;
73869;SDS011;64924;42.140;24.762;2023-08-17T04:36:30;6.80;;;3.65;;
73869;SDS011;64924;42.140;24.762;2023-08-17T04:38:56;7.88;;;4.75;;
73869;SDS011;64924;42.140;24.762;2023-08-17T04:41:21;6.65;;;3.78;;
73869;SDS011;64924;42.140;24.762;2023-08-17T04:43:47;7.15;;;3.83;;
73869;SDS011;64924;42.140;24.762;2023-08-17T04:46:14;13.00;;;4.80;;
73869;SDS011;64924;42.140;24.762;2023-08-17T04:48:39;9.73;;;4.18;;
73869;SDS011;64924;42.140;24.762;2023-08-17T04:51:05;10.10;;;4.20;;
73869;SDS011;64924;42.140;24.762;2023-08-17T04:53:30;9.95;;;4.53;;
73869;SDS011;64924;42.140;24.762;2023-08-17T04:55:56;10.20;;;4.50;;
73869;SDS011;64924;42.140;24.762;2023-08-17T04:58:21;10.43;;;4.07;;
73869;SDS011;64924;42.140;24.762;2023-08-17T05:00:47;10.55;;;4.50;;
73869;SDS011;64924;42.140;24.762;2023-08-17T05:03:13;8.52;;;4.35;;
73869;SDS011;64924;42.140;24.762;2023-08-17T05:05:38;8.38;;;3.70;;
73869;SDS011;64924;42.140;24.762;2023-08-17T05:08:04;8.23;;;4.40;;
73869;SDS011;64924;42.140;24.762;2023-08-17T05:10:29;13.95;;;4.28;;
73869;SDS011;64924;42.140;24.762;2023-08-17T05:12:55;12.68;;;4.50;;
73869;SDS011;64924;42.140;24.762;2023-08-17T05:15:20;9.63;;;4.20;;
73869;SDS011;64924;42.140;24.762;2023-08-17T05:17:46;7.95;;;4.47;;
73869;SDS011;64924;42.140;24.762;2023-08-17T05:20:11;11.73;;;5.53;;
73869;SDS011;64924;42.140;24.762;2023-08-17T05:22:40;9.40;;;4.32;;
73869;SDS011;64924;42.140;24.762;2023-08-17T05:25:06;10.00;;;4.35;;
73869;SDS011;64924;42.140;24.762;2023-08-17T05:27:32;6.60;;;4.38;;
73869;SDS011;64924;42.140;24.762;2023-08-17T05:29:57;8.18;;;4.30;;
73869;SDS011;64924;42.140;24.762;2023-08-17T05:32:23;10.07;;;4.32;;
73869;SDS011;64924;42.140;24.762;2023-08-17T05:34:48;10.30;;;3.67;;
73869;SDS011;64924;42.140;24.762;2023-08-17T05:37:15;9.13;;;4.60;;
73869;SDS011;64924;42.140;24.762;2023-08-17T05:39:41;8.85;;;4.10;;
73869;SDS011;64924;42.140;24.762;2023-08-17T05:42:07;10.00;;;3.80;;
73869;SDS011;64924;42.140;24.762;2023-08-17T05:44:32;7.15;;;3.70;;
73869;SDS011;64924;42.140;24.762;2023-08-17T05:46:58;9.90;;;4.18;;
73869;SDS011;64924;42.140;24.762;2023-08-17T05:49:24;9.40;;;4.10;;
73869;SDS011;64924;42.140;24.762;2023-08-17T05:51:49;7.03;;;3.85;;
73869;SDS011;64924;42.140;24.762;2023-08-17T05:54:15;8.93;;;4.15;;
73869;SDS011;64924;42.140;24.762;2023-08-17T05:56:40;7.80;;;4.10;;
73869;SDS011;64924;42.140;24.762;2023-08-17T05:59:11;8.10;;;3.90;;
73869;SDS011;64924;42.140;24.762;2023-08-17T06:01:37;12.27;;;4.13;;
73869;SDS011;64924;42.140;24.762;2023-08-17T06:04:03;11.93;;;4.63;;
73869;SDS011;64924;42.140;24.762;2023-08-17T06:06:29;11.02;;;3.97;;
73869;SDS011;64924;42.140;24.762;2023-08-17T06:08:55;10.18;;;3.83;;
73869;SDS011;64924;42.140;24.762;2023-08-17T06:11:20;8.50;;;3.88;;
73869;SDS011;64924;42.140;24.762;2023-08-17T06:13:45;13.40;;;3.85;;
73869;SDS011;64924;42.140;24.762;2023-08-17T06:16:11;11.77;;;3.53;;
73869;SDS011;64924;42.140;24.762;2023-08-17T06:18:37;8.90;;;3.70;;
73869;SDS011;64924;42.140;24.762;2023-08-17T06:21:03;10.05;;;3.85;;
73869;SDS011;64924;42.140;24.762;2023-08-17T06:23:28;9.70;;;4.03;;
73869;SDS011;64924;42.140;24.762;2023-08-17T06:25:57;11.68;;;3.78;;
73869;SDS011;64924;42.140;24.762;2023-08-17T06:28:23;9.85;;;4.05;;
73869;SDS011;64924;42.140;24.762;2023-08-17T06:30:53;10.95;;;3.90;;
73869;SDS011;64924;42.140;24.762;2023-08-17T06:33:20;10.43;;;4.20;;
73869;SDS011;64924;42.140;24.762;2023-08-17T06:35:48;17.17;;;4.25;;
73869;SDS011;64924;42.140;24.762;2023-08-17T06:38:14;13.07;;;4.30;;
73869;SDS011;64924;42.140;24.762;2023-08-17T06:40:41;10.82;;;4.07;;
73869;SDS011;64924;42.140;24.762;2023-08-17T06:43:06;9.75;;;4.03;;
73869;SDS011;64924;42.140;24.762;2023-08-17T06:45:32;18.40;;;4.55;;
73869;SDS011;64924;42.140;24.762;2023-08-17T06:47:58;10.25;;;3.60;;
73869;SDS011;64924;42.140;24.762;2023-08-17T06:50:24;7.43;;;3.75;;
73869;SDS011;64924;42.140;24.762;2023-08-17T06:52:51;12.60;;;3.53;;
73869;SDS011;64924;42.140;24.762;2023-08-17T06:55:17;10.43;;;3.63;;
73869;SDS011;64924;42.140;24.762;2023-08-17T06:57:43;8.45;;;3.72;;
73869;SDS011;64924;42.140;24.762;2023-08-17T07:00:08;12.68;;;4.40;;
73869;SDS011;64924;42.140;24.762;2023-08-17T07:02:36;9.18;;;3.55;;
73869;SDS011;64924;42.140;24.762;2023-08-17T07:05:02;6.20;;;3.70;;
73869;SDS011;64924;42.140;24.762;2023-08-17T07:07:29;10.05;;;3.40;;
73869;SDS011;64924;42.140;24.762;2023-08-17T07:09:56;8.90;;;4.63;;
73869;SDS011;64924;42.140;24.762;2023-08-17T07:12:23;9.05;;;3.85;;
73869;SDS011;64924;42.140;24.762;2023-08-17T07:14:49;7.85;;;3.83;;
73869;SDS011;64924;42.140;24.762;2023-08-17T07:17:15;10.18;;;3.95;;
73869;SDS011;64924;42.140;24.762;2023-08-17T07:19:40;10.23;;;3.90;;
73869;SDS011;64924;42.140;24.762;2023-08-17T07:22:06;8.93;;;4.03;;
73869;SDS011;64924;42.140;24.762;2023-08-17T07:24:31;7.55;;;3.42;;
73869;SDS011;64924;42.140;24.762;2023-08-17T07:26:57;6.85;;;3.55;;
73869;SDS011;64924;42.140;24.762;2023-08-17T07:29:23;9.95;;;3.85;;
73869;SDS011;64924;42.140;24.762;2023-08-17T07:31:49;7.50;;;3.70;;
73869;SDS011;64924;42.140;24.762;2023-08-17T07:34:14;6.78;;;4.00;;
73869;SDS011;64924;42.140;24.762;2023-08-17T07:36:41;5.85;;;3.60;;
73869;SDS011;64924;42.140;24.762;2023-08-17T07:39:07;12.05;;;3.67;;
73869;SDS011;64924;42.140;24.762;2023-08-17T07:41:32;7.25;;;3.38;;
73869;SDS011;64924;42.140;24.762;2023-08-17T07:43:58;8.82;;;3.47;;
73869;SDS011;64924;42.140;24.762;2023-08-17T07:46:23;10.63;;;3.92;;
73869;SDS011;64924;42.140;24.762;2023-08-17T07:48:49;9.98;;;4.07;;
73869;SDS011;64924;42.140;24.762;2023-08-17T07:51:14;7.15;;;3.55;;
73869;SDS011;64924;42.140;24.762;2023-08-17T07:53:40;9.13;;;3.65;;
73869;SDS011;64924;42.140;24.762;2023-08-17T07:56:05;13.02;;;3.78;;
73869;SDS011;64924;42.140;24.762;2023-08-17T07:58:31;8.98;;;3.45;;
73869;SDS011;64924;42.140;24.762;2023-08-17T08:00:57;7.85;;;4.32;;
73869;SDS011;64924;42.140;24.762;2023-08-17T08:03:22;5.20;;;3.22;;
73869;SDS011;64924;42.140;24.762;2023-08-17T08:05:48;8.30;;;3.40;;
73869;SDS011;64924;42.140;24.762;2023-08-17T08:08:13;11.25;;;3.75;;
73869;SDS011;64924;42.140;24.762;2023-08-17T08:10:40;8.27;;;3.38;;
73869;SDS011;64924;42.140;24.762;2023-08-17T08:13:05;6.68;;;3.53;;
73869;SDS011;64924;42.140;24.762;2023-08-17T08:15:32;11.18;;;3.67;;
73869;SDS011;64924;42.140;24.762;2023-08-17T08:17:59;9.13;;;3.50;;
73869;SDS011;64924;42.140;24.762;2023-08-17T08:20:24;9.23;;;3.60;;
73869;SDS011;64924;42.140;24.762;2023-08-17T08:22:50;9.65;;;5.38;;
73869;SDS011;64924;42.140;24.762;2023-08-17T08:25:15;11.65;;;4.32;;
73869;SDS011;64924;42.140;24.762;2023-08-17T08:27:41;7.88;;;3.10;;
73869;SDS011;64924;42.140;24.762;2023-08-17T08:30:07;9.82;;;4.20;;
73869;SDS011;64924;42.140;24.762;2023-08-17T08:32:33;4.53;;;2.78;;
73869;SDS011;64924;42.140;24.762;2023-08-17T08:34:58;6.78;;;3.15;;
73869;SDS011;64924;42.140;24.762;2023-08-17T08:37:24;8.45;;;2.83;;
73869;SDS011;64924;42.140;24.762;2023-08-17T08:39:53;7.15;;;3.10;;
73869;SDS011;64924;42.140;24.762;2023-08-17T08:42:20;6.07;;;3.13;;
73869;SDS011;64924;42.140;24.762;2023-08-17T08:44:47;4.93;;;2.28;;
73869;SDS011;64924;42.140;24.762;2023-08-17T08:47:14;5.43;;;2.70;;
73869;SDS011;64924;42.140;24.762;2023-08-17T08:49:44;5.13;;;2.65;;
73869;SDS011;64924;42.140;24.762;2023-08-17T08:52:16;7.45;;;2.83;;
73869;SDS011;64924;42.140;24.762;2023-08-17T08:54:48;4.75;;;2.30;;
73869;SDS011;64924;42.140;24.762;2023-08-17T08:57:20;9.80;;;3.33;;
73869;SDS011;64924;42.140;24.762;2023-08-17T08:59:47;8.48;;;3.45;;
73869;SDS011;64924;42.140;24.762;2023-08-17T09:02:16;9.32;;;2.88;;
73869;SDS011;64924;42.140;24.762;2023-08-17T09:04:44;6.85;;;3.60;;
73869;SDS011;64924;42.140;24.762;2023-08-17T09:07:14;12.48;;;3.28;;
73869;SDS011;64924;42.140;24.762;2023-08-17T09:09:42;4.82;;;2.90;;
73869;SDS011;64924;42.140;24.762;2023-08-17T09:12:10;9.98;;;2.97;;
73869;SDS011;64924;42.140;24.762;2023-08-17T09:14:36;8.23;;;3.10;;
73869;SDS011;64924;42.140;24.762;2023-08-17T09:17:02;8.95;;;2.47;;
73869;SDS011;64924;42.140;24.762;2023-08-17T09:19:31;4.82;;;2.60;;
73869;SDS011;64924;42.140;24.762;2023-08-17T09:21:58;5.18;;;2.70;;
73869;SDS011;64924;42.140;24.762;2023-08-17T09:24:24;14.43;;;2.67;;
73869;SDS011;64924;42.140;24.762;2023-08-17T09:26:50;9.38;;;4.38;;
73869;SDS011;64924;42.140;24.762;2023-08-17T09:29:16;7.28;;;2.90;;
73869;SDS011;64924;42.140;24.762;2023-08-17T09:31:43;8.10;;;3.00;;
73869;SDS011;64924;42.140;24.762;2023-08-17T09:34:08;4.78;;;2.88;;
73869;SDS011;64924;42.140;24.762;2023-08-17T09:36:37;5.55;;;3.13;;
73869;SDS011;64924;42.140;24.762;2023-08-17T09:39:04;5.35;;;2.67;;
73869;SDS011;64924;42.140;24.762;2023-08-17T09:41:30;4.90;;;3.00;;
73869;SDS011;64924;42.140;24.762;2023-08-17T09:43:55;8.85;;;2.78;;
73869;SDS011;64924;42.140;24.762;2023-08-17T09:46:21;8.18;;;3.17;;
73869;SDS011;64924;42.140;24.762;2023-08-17T09:48:47;7.68;;;2.88;;
73869;SDS011;64924;42.140;24.762;2023-08-17T09:51:16;9.43;;;3.30;;
73869;SDS011;64924;42.140;24.762;2023-08-17T09:53:42;9.70;;;2.63;;
73869;SDS011;64924;42.140;24.762;2023-08-17T09:56:08;6.43;;;2.50;;
73869;SDS011;64924;42.140;24.762;2023-08-17T09:58:36;7.85;;;2.50;;
73869;SDS011;64924;42.140;24.762;2023-08-17T10:01:05;6.65;;;2.90;;
73869;SDS011;64924;42.140;24.762;2023-08-17T10:03:33;7.32;;;2.83;;
73869;SDS011;64924;42.140;24.762;2023-08-17T10:06:01;6.70;;;2.45;;
73869;SDS011;64924;42.140;24.762;2023-08-17T10:08:31;6.40;;;2.30;;
73869;SDS011;64924;42.140;24.762;2023-08-17T10:13:41;7.25;;;2.58;;
73869;SDS011;64924;42.140;24.762;2023-08-17T10:21:54;9.15;;;2.65;;
73869;SDS011;64924;42.140;24.762;2023-08-17T10:24:39;8.68;;;2.88;;
73869;SDS011;64924;42.140;24.762;2023-08-17T10:27:05;3.78;;;2.60;;
73869;SDS011;64924;42.140;24.762;2023-08-17T10:29:32;4.63;;;3.35;;
73869;SDS011;64924;42.140;24.762;2023-08-17T10:31:59;6.72;;;2.47;;
73869;SDS011;64924;42.140;24.762;2023-08-17T10:34:26;6.28;;;2.42;;
73869;SDS011;64924;42.140;24.762;2023-08-17T10:36:53;5.28;;;2.35;;
73869;SDS011;64924;42.140;24.762;2023-08-17T10:49:55;7.00;;;2.40;;
73869;SDS011;64924;42.140;24.762;2023-08-17T10:52:26;3.72;;;2.47;;
73869;SDS011;64924;42.140;24.762;2023-08-17T10:54:52;6.25;;;2.80;;
73869;SDS011;64924;42.140;24.762;2023-08-17T11:03:03;3.97;;;2.75;;
73869;SDS011;64924;42.140;24.762;2023-08-17T11:05:46;3.58;;;2.40;;
73869;SDS011;64924;42.140;24.762;2023-08-17T11:13:29;3.90;;;2.80;;
73869;SDS011;64924;42.140;24.762;2023-08-17T11:15:57;3.25;;;2.30;;
73869;SDS011;64924;42.140;24.762;2023-08-17T11:18:23;5.18;;;2.20;;
73869;SDS011;64924;42.140;24.762;2023-08-17T11:20:49;4.97;;;2.45;;
73869;SDS011;64924;42.140;24.762;2023-08-17T11:23:15;6.60;;;2.65;;
73869;SDS011;64924;42.140;24.762;2023-08-17T11:25:41;3.28;;;2.05;;
73869;SDS011;64924;42.140;24.762;2023-08-17T11:28:07;2.70;;;2.28;;
73869;SDS011;64924;42.140;24.762;2023-08-17T11:30:34;5.30;;;2.22;;
73869;SDS011;64924;42.140;24.762;2023-08-17T11:33:02;4.78;;;2.42;;
73869;SDS011;64924;42.140;24.762;2023-08-17T11:35:28;3.33;;;2.42;;
73869;SDS011;64924;42.140;24.762;2023-08-17T11:37:53;4.85;;;3.72;;
73869;SDS011;64924;42.140;24.762;2023-08-17T11:40:18;7.03;;;3.03;;
73869;SDS011;64924;42.140;24.762;2023-08-17T11:42:45;6.75;;;3.00;;
73869;SDS011;64924;42.140;24.762;2023-08-17T11:45:11;6.28;;;2.40;;
73869;SDS011;64924;42.140;24.762;2023-08-17T11:47:38;5.60;;;2.38;;
73869;SDS011;64924;42.140;24.762;2023-08-17T11:50:05;5.53;;;2.10;;
73869;SDS011;64924;42.140;24.762;2023-08-17T11:52:32;6.00;;;2.80;;
73869;SDS011;64924;42.140;24.762;2023-08-17T11:54:58;4.22;;;3.00;;
73869;SDS011;64924;42.140;24.762;2023-08-17T11:57:24;4.95;;;2.60;;
73869;SDS011;64924;42.140;24.762;2023-08-17T11:59:54;3.50;;;2.22;;
73869;SDS011;64924;42.140;24.762;2023-08-17T12:02:25;5.20;;;2.20;;
73869;SDS011;64924;42.140;24.762;2023-08-17T12:04:52;5.13;;;1.83;;
73869;SDS011;64924;42.140;24.762;2023-08-17T12:07:18;5.38;;;2.40;;
73869;SDS011;64924;42.140;24.762;2023-08-17T12:09:45;4.30;;;2.53;;
73869;SDS011;64924;42.140;24.762;2023-08-17T12:12:11;7.78;;;2.75;;
73869;SDS011;64924;42.140;24.762;2023-08-17T12:14:40;4.97;;;2.35;;
73869;SDS011;64924;42.140;24.762;2023-08-17T12:17:07;4.30;;;2.47;;
73869;SDS011;64924;42.140;24.762;2023-08-17T12:19:33;6.07;;;2.42;;
73869;SDS011;64924;42.140;24.762;2023-08-17T12:21:58;8.30;;;2.90;;
73869;SDS011;64924;42.140;24.762;2023-08-17T12:24:24;2.78;;;1.95;;
73869;SDS011;64924;42.140;24.762;2023-08-17T12:26:50;5.07;;;2.13;;
73869;SDS011;64924;42.140;24.762;2023-08-17T12:29:15;4.72;;;2.20;;
73869;SDS011;64924;42.140;24.762;2023-08-17T12:31:41;4.22;;;1.95;;
73869;SDS011;64924;42.140;24.762;2023-08-17T12:34:06;12.82;;;2.25;;
73869;SDS011;64924;42.140;24.762;2023-08-17T12:36:32;7.13;;;2.45;;
73869;SDS011;64924;42.140;24.762;2023-08-17T12:38:57;3.13;;;2.35;;
73869;SDS011;64924;42.140;24.762;2023-08-17T12:41:23;3.60;;;2.33;;
73869;SDS011;64924;42.140;24.762;2023-08-17T12:43:49;3.15;;;2.40;;
73869;SDS011;64924;42.140;24.762;2023-08-17T12:46:14;6.30;;;2.05;;
73869;SDS011;64924;42.140;24.762;2023-08-17T12:48:40;4.78;;;2.15;;
73869;SDS011;64924;42.140;24.762;2023-08-17T12:51:05;4.43;;;2.40;;
73869;SDS011;64924;42.140;24.762;2023-08-17T12:53:31;4.75;;;2.15;;
73869;SDS011;64924;42.140;24.762;2023-08-17T12:55:57;7.75;;;2.55;;
73869;SDS011;64924;42.140;24.762;2023-08-17T12:58:23;9.18;;;2.88;;
73869;SDS011;64924;42.140;24.762;2023-08-17T13:00:49;8.75;;;2.17;;
73869;SDS011;64924;42.140;24.762;2023-08-17T13:03:16;4.30;;;2.65;;
73869;SDS011;64924;42.140;24.762;2023-08-17T13:05:42;5.55;;;2.33;;
73869;SDS011;64924;42.140;24.762;2023-08-17T13:08:09;6.78;;;2.10;;
73869;SDS011;64924;42.140;24.762;2023-08-17T13:10:36;6.78;;;2.65;;
73869;SDS011;64924;42.140;24.762;2023-08-17T13:13:01;6.22;;;2.25;;
73869;SDS011;64924;42.140;24.762;2023-08-17T13:15:27;6.38;;;2.03;;
73869;SDS011;64924;42.140;24.762;2023-08-17T13:17:53;5.13;;;2.33;;
73869;SDS011;64924;42.140;24.762;2023-08-17T13:20:19;7.05;;;2.05;;
73869;SDS011;64924;42.140;24.762;2023-08-17T13:22:46;3.85;;;2.38;;
73869;SDS011;64924;42.140;24.762;2023-08-17T13:25:11;5.30;;;2.50;;
73869;SDS011;64924;42.140;24.762;2023-08-17T13:27:37;3.83;;;2.33;;
73869;SDS011;64924;42.140;24.762;2023-08-17T13:30:02;7.75;;;2.40;;
73869;SDS011;64924;42.140;24.762;2023-08-17T13:32:28;5.32;;;2.63;;
73869;SDS011;64924;42.140;24.762;2023-08-17T13:34:54;4.07;;;2.65;;
73869;SDS011;64924;42.140;24.762;2023-08-17T13:37:19;3.58;;;2.25;;
73869;SDS011;64924;42.140;24.762;2023-08-17T13:39:45;4.38;;;2.30;;
73869;SDS011;64924;42.140;24.762;2023-08-17T13:42:11;8.23;;;2.90;;
73869;SDS011;64924;42.140;24.762;2023-08-17T13:44:37;4.80;;;2.50;;
73869;SDS011;64924;42.140;24.762;2023-08-17T13:47:03;6.97;;;2.15;;
73869;SDS011;64924;42.140;24.762;2023-08-17T13:49:30;6.25;;;2.50;;
73869;SDS011;64924;42.140;24.762;2023-08-17T13:51:55;5.75;;;2.40;;
73869;SDS011;64924;42.140;24.762;2023-08-17T13:54:22;5.30;;;2.30;;
73869;SDS011;64924;42.140;24.762;2023-08-17T13:56:48;3.83;;;2.10;;
73869;SDS011;64924;42.140;24.762;2023-08-17T13:59:13;4.60;;;2.40;;
73869;SDS011;64924;42.140;24.762;2023-08-17T14:01:39;4.30;;;2.50;;
73869;SDS011;64924;42.140;24.762;2023-08-17T14:04:05;4.03;;;2.38;;
73869;SDS011;64924;42.140;24.762;2023-08-17T14:06:36;5.07;;;2.97;;
73869;SDS011;64924;42.140;24.762;2023-08-17T14:09:03;9.20;;;3.17;;
73869;SDS011;64924;42.140;24.762;2023-08-17T14:11:29;6.57;;;3.03;;
73869;SDS011;64924;42.140;24.762;2023-08-17T14:13:54;5.28;;;2.97;;
73869;SDS011;64924;42.140;24.762;2023-08-17T14:16:20;7.18;;;3.13;;
73869;SDS011;64924;42.140;24.762;2023-08-17T14:18:45;4.97;;;2.47;;
73869;SDS011;64924;42.140;24.762;2023-08-17T14:21:11;5.53;;;2.55;;
73869;SDS011;64924;42.140;24.762;2023-08-17T14:23:37;5.57;;;2.20;;
73869;SDS011;64924;42.140;24.762;2023-08-17T14:26:03;4.03;;;2.50;;
73869;SDS011;64924;42.140;24.762;2023-08-17T14:28:28;6.40;;;3.05;;
73869;SDS011;64924;42.140;24.762;2023-08-17T14:30:54;6.90;;;2.95;;
73869;SDS011;64924;42.140;24.762;2023-08-17T14:33:19;8.05;;;2.80;;
73869;SDS011;64924;42.140;24.762;2023-08-17T14:35:45;5.68;;;2.40;;
73869;SDS011;64924;42.140;24.762;2023-08-17T14:38:11;7.95;;;2.60;;
73869;SDS011;64924;42.140;24.762;2023-08-17T14:40:41;6.30;;;2.42;;
73869;SDS011;64924;42.140;24.762;2023-08-17T14:43:08;5.78;;;2.80;;
73869;SDS011;64924;42.140;24.762;2023-08-17T14:45:34;4.53;;;2.53;;
73869;SDS011;64924;42.140;24.762;2023-08-17T14:48:00;4.10;;;2.30;;
73869;SDS011;64924;42.140;24.762;2023-08-17T14:50:27;12.60;;;2.88;;
73869;SDS011;64924;42.140;24.762;2023-08-17T14:52:52;5.53;;;3.15;;
73869;SDS011;64924;42.140;24.762;2023-08-17T14:55:18;5.97;;;3.40;;
73869;SDS011;64924;42.140;24.762;2023-08-17T14:57:43;6.53;;;4.38;;
73869;SDS011;64924;42.140;24.762;2023-08-17T15:00:09;6.53;;;4.40;;
73869;SDS011;64924;42.140;24.762;2023-08-17T15:02:36;14.38;;;3.80;;